sensor_id;sensor_type;location;lat;lon;timestamp;pressure;altitude;pressure_sealevel;temperature;humidity
72336;BME280;65062;48.446;8.834;2023-04-08T00:02:24;97738.97;;;6.74;90.09
72336;BME280;65062;48.446;8.834;2023-04-08T00:05:24;97750.72;;;6.78;90.33
72336;BME280;65062;48.446;8.834;2023-04-08T00:08:25;97739.78;;;6.66;90.09
72336;BME280;65062;48.446;8.834;2023-04-08T00:11:25;97742.84;;;6.62;90.37
72336;BME280;65062;48.446;8.834;2023-04-08T00:14:26;97744.94;;;6.58;89.77
72336;BME280;65062;48.446;8.834;2023-04-08T00:17:26;97747.97;;;6.54;90.04
72336;BME280;65062;48.446;8.834;2023-04-08T00:20:26;97756.63;;;6.54;89.84
72336;BME280;65062;48.446;8.834;2023-04-08T00:23:27;97750.41;;;6.47;90.84
72336;BME280;65062;48.446;8.834;2023-04-08T00:26:27;97755.59;;;6.47;90.36
72336;BME280;65062;48.446;8.834;2023-04-08T00:29:28;97754.97;;;6.53;89.80
72336;BME280;65062;48.446;8.834;2023-04-08T00:32:28;97751.97;;;6.66;89.83
72336;BME280;65062;48.446;8.834;2023-04-08T00:35:29;97755.84;;;6.62;89.82
72336;BME280;65062;48.446;8.834;2023-04-08T00:38:29;97760.31;;;6.52;90.10
72336;BME280;65062;48.446;8.834;2023-04-08T00:41:30;97749.91;;;6.52;90.13
72336;BME280;65062;48.446;8.834;2023-04-08T00:44:30;97757.69;;;6.43;90.27
72336;BME280;65062;48.446;8.834;2023-04-08T00:47:30;97755.53;;;6.39;90.41
72336;BME280;65062;48.446;8.834;2023-04-08T00:50:31;97762.13;;;6.51;90.58
72336;BME280;65062;48.446;8.834;2023-04-08T00:53:32;97768.22;;;6.42;90.16
72336;BME280;65062;48.446;8.834;2023-04-08T00:56:33;97766.78;;;6.47;90.44
72336;BME280;65062;48.446;8.834;2023-04-08T00:59:33;97765.34;;;6.45;90.76
72336;BME280;65062;48.446;8.834;2023-04-08T01:05:55;97768.22;;;6.42;90.41
72336;BME280;65062;48.446;8.834;2023-04-08T01:08:59;97763.03;;;6.42;90.82
72336;BME280;65062;48.446;8.834;2023-04-08T01:12:01;97763.78;;;6.34;90.82
72336;BME280;65062;48.446;8.834;2023-04-08T01:15:04;97758.97;;;6.39;91.12
72336;BME280;65062;48.446;8.834;2023-04-08T01:18:08;97761.88;;;6.36;90.78
72336;BME280;65062;48.446;8.834;2023-04-08T01:21:11;97762.78;;;6.27;90.69
72336;BME280;65062;48.446;8.834;2023-04-08T01:24:25;97761.75;;;6.20;91.42
72336;BME280;65062;48.446;8.834;2023-04-08T01:27:29;97762.84;;;6.18;91.59
72336;BME280;65062;48.446;8.834;2023-04-08T01:30:31;97757.66;;;6.18;92.13
72336;BME280;65062;48.446;8.834;2023-04-08T01:33:34;97757.66;;;6.18;91.94
72336;BME280;65062;48.446;8.834;2023-04-08T01:36:36;97753.19;;;6.28;91.43
72336;BME280;65062;48.446;8.834;2023-04-08T01:39:39;97754.31;;;6.25;90.89
72336;BME280;65062;48.446;8.834;2023-04-08T01:42:41;97764.22;;;6.22;91.30
72336;BME280;65062;48.446;8.834;2023-04-08T01:45:44;97764.06;;;6.23;91.45
72336;BME280;65062;48.446;8.834;2023-04-08T01:48:44;97759.88;;;6.30;92.04
72336;BME280;65062;48.446;8.834;2023-04-08T01:51:48;97757.97;;;6.40;91.69
72336;BME280;65062;48.446;8.834;2023-04-08T01:54:48;97753.75;;;6.39;90.95
72336;BME280;65062;48.446;8.834;2023-04-08T01:57:51;97753.41;;;6.34;90.73
72336;BME280;65062;48.446;8.834;2023-04-08T02:00:53;97753.75;;;6.39;90.46
72336;BME280;65062;48.446;8.834;2023-04-08T02:03:56;97757.97;;;6.40;90.72
72336;BME280;65062;48.446;8.834;2023-04-08T02:06:57;97756.75;;;6.27;90.89
72336;BME280;65062;48.446;8.834;2023-04-08T02:09:58;97755.59;;;6.21;91.34
72336;BME280;65062;48.446;8.834;2023-04-08T02:12:59;97758.22;;;6.29;91.29
72336;BME280;65062;48.446;8.834;2023-04-08T02:16:09;97757.72;;;6.26;90.93
72336;BME280;65062;48.446;8.834;2023-04-08T02:19:19;97758.78;;;6.15;90.83
72336;BME280;65062;48.446;8.834;2023-04-08T02:25:39;97761.00;;;6.10;91.63
72336;BME280;65062;48.446;8.834;2023-04-08T02:28:40;97762.38;;;6.14;92.03
72336;BME280;65062;48.446;8.834;2023-04-08T02:31:42;97763.84;;;6.17;91.12
72336;BME280;65062;48.446;8.834;2023-04-08T02:34:43;97767.59;;;6.22;91.41
72336;BME280;65062;48.446;8.834;2023-04-08T02:37:45;97765.31;;;6.19;91.30
72336;BME280;65062;48.446;8.834;2023-04-08T02:40:48;97766.81;;;6.04;91.36
72336;BME280;65062;48.446;8.834;2023-04-08T02:43:50;97765.78;;;5.97;92.01
72336;BME280;65062;48.446;8.834;2023-04-08T02:46:54;97759.72;;;5.89;91.73
72336;BME280;65062;48.446;8.834;2023-04-08T02:49:55;97763.03;;;5.81;92.17
72336;BME280;65062;48.446;8.834;2023-04-08T02:52:55;97769.72;;;5.84;92.69
72336;BME280;65062;48.446;8.834;2023-04-08T02:55:55;97770.94;;;5.89;92.61
72336;BME280;65062;48.446;8.834;2023-04-08T02:58:56;97769.28;;;5.88;92.64
72336;BME280;65062;48.446;8.834;2023-04-08T03:01:56;97775.81;;;5.92;92.69
72336;BME280;65062;48.446;8.834;2023-04-08T03:04:56;97769.41;;;6.04;92.38
72336;BME280;65062;48.446;8.834;2023-04-08T03:07:57;97770.22;;;6.05;92.35
72336;BME280;65062;48.446;8.834;2023-04-08T03:10:57;97768.03;;;5.92;92.45
72336;BME280;65062;48.446;8.834;2023-04-08T03:13:58;97770.19;;;5.97;92.62
72336;BME280;65062;48.446;8.834;2023-04-08T03:16:58;97767.44;;;5.98;92.71
72336;BME280;65062;48.446;8.834;2023-04-08T03:20:00;97774.53;;;6.14;92.67
72336;BME280;65062;48.446;8.834;2023-04-08T03:23:00;97778.59;;;6.16;92.15
72336;BME280;65062;48.446;8.834;2023-04-08T03:26:00;97779.88;;;6.12;92.16
72336;BME280;65062;48.446;8.834;2023-04-08T03:29:01;97778.91;;;6.13;92.65
72336;BME280;65062;48.446;8.834;2023-04-08T03:32:01;97776.75;;;6.09;92.38
72336;BME280;65062;48.446;8.834;2023-04-08T03:35:02;97777.03;;;6.06;92.55
72336;BME280;65062;48.446;8.834;2023-04-08T03:38:03;97781.88;;;6.18;91.87
72336;BME280;65062;48.446;8.834;2023-04-08T03:41:03;97777.34;;;6.20;91.56
72336;BME280;65062;48.446;8.834;2023-04-08T03:44:04;97775.34;;;6.14;91.34
72336;BME280;65062;48.446;8.834;2023-04-08T03:47:04;97777.16;;;5.96;91.45
72336;BME280;65062;48.446;8.834;2023-04-08T03:50:05;97777.66;;;5.82;91.75
72336;BME280;65062;48.446;8.834;2023-04-08T03:53:05;97781.78;;;5.75;92.23
72336;BME280;65062;48.446;8.834;2023-04-08T03:56:06;97778.19;;;5.86;91.92
72336;BME280;65062;48.446;8.834;2023-04-08T03:59:06;97775.19;;;5.81;91.60
72336;BME280;65062;48.446;8.834;2023-04-08T04:02:07;97775.72;;;5.67;91.92
72336;BME280;65062;48.446;8.834;2023-04-08T04:05:07;97772.53;;;5.55;92.23
72336;BME280;65062;48.446;8.834;2023-04-08T04:08:08;97775.41;;;5.52;92.30
72336;BME280;65062;48.446;8.834;2023-04-08T04:11:08;97772.06;;;5.42;92.93
72336;BME280;65062;48.446;8.834;2023-04-08T04:14:08;97777.31;;;5.50;93.05
72336;BME280;65062;48.446;8.834;2023-04-08T04:17:09;97781.72;;;5.50;93.35
72336;BME280;65062;48.446;8.834;2023-04-08T04:20:10;97783.88;;;5.54;93.16
72336;BME280;65062;48.446;8.834;2023-04-08T04:23:10;97783.88;;;5.54;92.88
72336;BME280;65062;48.446;8.834;2023-04-08T04:26:11;97787.34;;;5.63;93.58
72336;BME280;65062;48.446;8.834;2023-04-08T04:29:11;97788.41;;;5.70;93.46
72336;BME280;65062;48.446;8.834;2023-04-08T04:32:11;97787.28;;;5.72;92.98
72336;BME280;65062;48.446;8.834;2023-04-08T04:35:12;97793.16;;;5.74;92.48
72336;BME280;65062;48.446;8.834;2023-04-08T04:38:12;97796.81;;;5.81;92.51
72336;BME280;65062;48.446;8.834;2023-04-08T04:41:13;97793.88;;;5.67;91.99
72336;BME280;65062;48.446;8.834;2023-04-08T04:44:13;97792.75;;;5.69;92.75
72336;BME280;65062;48.446;8.834;2023-04-08T04:47:14;97795.00;;;5.64;92.99
72336;BME280;65062;48.446;8.834;2023-04-08T04:50:15;97792.75;;;5.69;93.08
72336;BME280;65062;48.446;8.834;2023-04-08T04:53:15;97798.25;;;5.66;92.74
72336;BME280;65062;48.446;8.834;2023-04-08T04:56:16;97807.59;;;5.77;92.67
72336;BME280;65062;48.446;8.834;2023-04-08T04:59:16;97814.75;;;5.75;93.00
72336;BME280;65062;48.446;8.834;2023-04-08T05:02:18;97811.63;;;5.71;92.85
72336;BME280;65062;48.446;8.834;2023-04-08T05:05:18;97808.69;;;5.84;93.11
72336;BME280;65062;48.446;8.834;2023-04-08T05:08:19;97809.75;;;5.91;92.89
72336;BME280;65062;48.446;8.834;2023-04-08T05:11:19;97810.38;;;5.93;92.79
72336;BME280;65062;48.446;8.834;2023-04-08T05:14:21;97811.59;;;5.98;91.92
72336;BME280;65062;48.446;8.834;2023-04-08T05:17:21;97819.44;;;5.89;91.75
72336;BME280;65062;48.446;8.834;2023-04-08T05:20:21;97817.53;;;5.91;91.86
72336;BME280;65062;48.446;8.834;2023-04-08T05:23:21;97823.38;;;5.93;92.13
72336;BME280;65062;48.446;8.834;2023-04-08T05:26:22;97817.97;;;6.04;92.16
72336;BME280;65062;48.446;8.834;2023-04-08T05:29:22;97822.34;;;6.03;91.43
72336;BME280;65062;48.446;8.834;2023-04-08T05:32:23;97818.75;;;6.04;91.11
72336;BME280;65062;48.446;8.834;2023-04-08T05:35:23;97819.97;;;6.10;91.44
72336;BME280;65062;48.446;8.834;2023-04-08T05:38:24;97825.03;;;6.11;91.26
72336;BME280;65062;48.446;8.834;2023-04-08T05:41:24;97821.16;;;6.15;91.58
72336;BME280;65062;48.446;8.834;2023-04-08T05:44:25;97828.50;;;6.20;91.26
72336;BME280;65062;48.446;8.834;2023-04-08T05:47:25;97832.88;;;6.19;91.26
72336;BME280;65062;48.446;8.834;2023-04-08T05:50:25;97831.91;;;6.20;90.75
72336;BME280;65062;48.446;8.834;2023-04-08T05:53:26;97843.34;;;6.27;90.97
72336;BME280;65062;48.446;8.834;2023-04-08T05:56:26;97846.28;;;6.32;90.86
72336;BME280;65062;48.446;8.834;2023-04-08T05:59:27;97843.63;;;6.42;90.57
72336;BME280;65062;48.446;8.834;2023-04-08T06:02:27;97844.88;;;6.56;89.96
72336;BME280;65062;48.446;8.834;2023-04-08T06:05:27;97847.00;;;6.60;89.53
72336;BME280;65062;48.446;8.834;2023-04-08T06:08:28;97852.38;;;6.59;90.02
72336;BME280;65062;48.446;8.834;2023-04-08T06:11:28;97849.66;;;6.68;89.77
72336;BME280;65062;48.446;8.834;2023-04-08T06:14:29;97859.00;;;6.79;88.83
72336;BME280;65062;48.446;8.834;2023-04-08T06:17:29;97858.38;;;6.85;88.86
72336;BME280;65062;48.446;8.834;2023-04-08T06:20:30;97851.44;;;6.93;89.22
72336;BME280;65062;48.446;8.834;2023-04-08T06:23:30;97858.41;;;6.93;87.13
72336;BME280;65062;48.446;8.834;2023-04-08T06:26:30;97852.88;;;7.13;87.08
72336;BME280;65062;48.446;8.834;2023-04-08T06:29:31;97852.69;;;7.15;86.58
72336;BME280;65062;48.446;8.834;2023-04-08T06:32:32;97854.66;;;7.13;87.55
72336;BME280;65062;48.446;8.834;2023-04-08T06:35:33;97856.50;;;7.28;86.78
72336;BME280;65062;48.446;8.834;2023-04-08T06:38:33;97857.53;;;7.43;86.89
72336;BME280;65062;48.446;8.834;2023-04-08T06:41:34;97853.84;;;7.54;85.23
72336;BME280;65062;48.446;8.834;2023-04-08T06:44:34;97865.09;;;7.62;86.25
72336;BME280;65062;48.446;8.834;2023-04-08T06:47:35;97859.41;;;7.67;85.55
72336;BME280;65062;48.446;8.834;2023-04-08T06:50:35;97861.34;;;7.65;85.62
72336;BME280;65062;48.446;8.834;2023-04-08T06:53:35;97866.97;;;7.86;84.41
72336;BME280;65062;48.446;8.834;2023-04-08T06:56:36;97864.34;;;7.86;84.13
72336;BME280;65062;48.446;8.834;2023-04-08T06:59:36;97855.09;;;7.99;82.88
72336;BME280;65062;48.446;8.834;2023-04-08T07:02:37;97866.19;;;8.09;82.76
72336;BME280;65062;48.446;8.834;2023-04-08T07:05:37;97868.69;;;8.27;81.89
72336;BME280;65062;48.446;8.834;2023-04-08T07:08:38;97874.88;;;8.34;81.47
72336;BME280;65062;48.446;8.834;2023-04-08T07:11:38;97873.13;;;8.42;81.93
72336;BME280;65062;48.446;8.834;2023-04-08T07:14:39;97876.22;;;8.54;81.86
72336;BME280;65062;48.446;8.834;2023-04-08T07:17:39;97875.56;;;8.60;80.73
72336;BME280;65062;48.446;8.834;2023-04-08T07:20:39;97880.09;;;8.50;80.18
72336;BME280;65062;48.446;8.834;2023-04-08T07:23:41;97882.41;;;8.61;82.13
72336;BME280;65062;48.446;8.834;2023-04-08T07:26:41;97889.56;;;8.67;80.78
72336;BME280;65062;48.446;8.834;2023-04-08T07:29:41;97892.34;;;8.74;80.54
72336;BME280;65062;48.446;8.834;2023-04-08T07:32:42;97900.16;;;8.74;79.76
72336;BME280;65062;48.446;8.834;2023-04-08T07:35:42;97897.72;;;8.72;80.56
72336;BME280;65062;48.446;8.834;2023-04-08T07:38:42;97899.19;;;8.75;80.42
72336;BME280;65062;48.446;8.834;2023-04-08T07:41:43;97900.31;;;8.72;80.46
72336;BME280;65062;48.446;8.834;2023-04-08T07:44:44;97897.22;;;8.61;79.87
72336;BME280;65062;48.446;8.834;2023-04-08T07:47:45;97901.16;;;8.65;81.31
72336;BME280;65062;48.446;8.834;2023-04-08T07:50:45;97903.59;;;8.66;81.55
72336;BME280;65062;48.446;8.834;2023-04-08T07:53:46;97905.56;;;8.48;82.70
72336;BME280;65062;48.446;8.834;2023-04-08T07:56:46;97898.88;;;8.45;81.71
72336;BME280;65062;48.446;8.834;2023-04-08T07:59:47;97906.88;;;8.44;80.86
72336;BME280;65062;48.446;8.834;2023-04-08T08:02:47;97901.47;;;8.53;80.65
72336;BME280;65062;48.446;8.834;2023-04-08T08:05:47;97905.88;;;8.61;79.44
72336;BME280;65062;48.446;8.834;2023-04-08T08:08:48;97909.31;;;8.78;81.44
72336;BME280;65062;48.446;8.834;2023-04-08T08:11:48;97909.44;;;9.00;80.81
72336;BME280;65062;48.446;8.834;2023-04-08T08:14:49;97920.50;;;9.26;80.24
72336;BME280;65062;48.446;8.834;2023-04-08T08:17:50;97922.28;;;9.34;79.73
72336;BME280;65062;48.446;8.834;2023-04-08T08:20:50;97924.38;;;9.38;79.07
72336;BME280;65062;48.446;8.834;2023-04-08T08:23:51;97927.31;;;9.43;77.60
72336;BME280;65062;48.446;8.834;2023-04-08T08:26:52;97927.66;;;9.40;74.27
72336;BME280;65062;48.446;8.834;2023-04-08T08:29:52;97923.41;;;9.39;75.72
72336;BME280;65062;48.446;8.834;2023-04-08T08:32:53;97933.78;;;9.63;75.41
72336;BME280;65062;48.446;8.834;2023-04-08T08:35:53;97926.25;;;9.68;72.88
72336;BME280;65062;48.446;8.834;2023-04-08T08:38:54;97921.19;;;10.05;72.25
72336;BME280;65062;48.446;8.834;2023-04-08T08:41:55;97924.28;;;10.09;72.09
72336;BME280;65062;48.446;8.834;2023-04-08T08:44:55;97928.38;;;10.11;69.43
72336;BME280;65062;48.446;8.834;2023-04-08T08:47:56;97927.34;;;9.82;70.97
72336;BME280;65062;48.446;8.834;2023-04-08T08:50:56;97935.53;;;9.71;71.86
72336;BME280;65062;48.446;8.834;2023-04-08T08:54:01;97935.47;;;9.48;72.30
72336;BME280;65062;48.446;8.834;2023-04-08T08:57:01;97937.63;;;9.37;73.42
72336;BME280;65062;48.446;8.834;2023-04-08T09:00:02;97931.72;;;9.43;73.81
72336;BME280;65062;48.446;8.834;2023-04-08T09:03:15;97939.50;;;9.67;72.15
72336;BME280;65062;48.446;8.834;2023-04-08T09:06:17;97938.75;;;9.89;71.44
72336;BME280;65062;48.446;8.834;2023-04-08T09:09:17;97938.53;;;10.06;69.17
72336;BME280;65062;48.446;8.834;2023-04-08T09:12:17;97941.13;;;10.14;70.76
72336;BME280;65062;48.446;8.834;2023-04-08T09:15:18;97945.66;;;10.20;69.51
72336;BME280;65062;48.446;8.834;2023-04-08T09:18:21;97940.47;;;10.04;69.08
72336;BME280;65062;48.446;8.834;2023-04-08T09:21:22;97938.69;;;10.35;68.72
72336;BME280;65062;48.446;8.834;2023-04-08T09:24:28;97935.16;;;10.51;67.12
72336;BME280;65062;48.446;8.834;2023-04-08T09:27:37;97942.59;;;10.62;67.13
72336;BME280;65062;48.446;8.834;2023-04-08T09:30:37;97941.72;;;10.70;65.41
72336;BME280;65062;48.446;8.834;2023-04-08T09:33:38;97950.66;;;10.98;65.16
72336;BME280;65062;48.446;8.834;2023-04-08T09:36:38;97945.72;;;11.03;64.28
72336;BME280;65062;48.446;8.834;2023-04-08T09:39:38;97942.06;;;11.12;64.49
72336;BME280;65062;48.446;8.834;2023-04-08T09:42:42;97937.63;;;11.27;63.92
72336;BME280;65062;48.446;8.834;2023-04-08T09:45:44;97937.09;;;11.31;62.56
72336;BME280;65062;48.446;8.834;2023-04-08T09:48:55;97933.16;;;11.93;62.29
72336;BME280;65062;48.446;8.834;2023-04-08T09:55:12;97944.56;;;11.86;60.56
72336;BME280;65062;48.446;8.834;2023-04-08T09:58:21;97942.75;;;12.01;63.83
72336;BME280;65062;48.446;8.834;2023-04-08T10:01:31;97948.88;;;12.08;63.13
72336;BME280;65062;48.446;8.834;2023-04-08T10:04:37;97945.44;;;11.93;60.54
72336;BME280;65062;48.446;8.834;2023-04-08T10:07:40;97953.69;;;11.90;62.06
72336;BME280;65062;48.446;8.834;2023-04-08T10:10:41;97947.00;;;11.87;60.42
72336;BME280;65062;48.446;8.834;2023-04-08T10:13:42;97946.44;;;11.92;58.40
72336;BME280;65062;48.446;8.834;2023-04-08T10:16:43;97945.03;;;11.75;56.98
72336;BME280;65062;48.446;8.834;2023-04-08T10:19:43;97955.16;;;12.28;55.97
72336;BME280;65062;48.446;8.834;2023-04-08T10:22:47;97949.09;;;12.63;54.71
72336;BME280;65062;48.446;8.834;2023-04-08T10:25:48;97939.66;;;13.11;53.05
72336;BME280;65062;48.446;8.834;2023-04-08T10:28:48;97942.84;;;13.06;53.10
72336;BME280;65062;48.446;8.834;2023-04-08T10:31:49;97940.66;;;13.37;52.08
72336;BME280;65062;48.446;8.834;2023-04-08T10:34:50;97931.38;;;13.14;55.96
72336;BME280;65062;48.446;8.834;2023-04-08T10:37:51;97934.25;;;13.19;51.70
72336;BME280;65062;48.446;8.834;2023-04-08T10:40:53;97936.59;;;13.07;52.15
72336;BME280;65062;48.446;8.834;2023-04-08T10:43:53;97929.69;;;13.06;51.98
72336;BME280;65062;48.446;8.834;2023-04-08T10:46:54;97940.38;;;13.26;50.79
72336;BME280;65062;48.446;8.834;2023-04-08T10:49:54;97936.03;;;13.39;48.04
72336;BME280;65062;48.446;8.834;2023-04-08T10:52:55;97939.16;;;13.28;47.16
72336;BME280;65062;48.446;8.834;2023-04-08T10:56:10;97934.97;;;12.85;48.60
72336;BME280;65062;48.446;8.834;2023-04-08T10:59:13;97931.38;;;13.41;48.54
72336;BME280;65062;48.446;8.834;2023-04-08T11:02:19;97926.34;;;13.80;48.78
72336;BME280;65062;48.446;8.834;2023-04-08T11:05:21;97923.41;;;14.56;45.04
72336;BME280;65062;48.446;8.834;2023-04-08T11:08:27;97934.47;;;13.85;44.98
72336;BME280;65062;48.446;8.834;2023-04-08T11:11:29;97926.28;;;14.61;45.71
72336;BME280;65062;48.446;8.834;2023-04-08T11:14:30;97925.66;;;14.73;42.83
72336;BME280;65062;48.446;8.834;2023-04-08T11:17:33;97919.53;;;14.46;42.95
72336;BME280;65062;48.446;8.834;2023-04-08T11:20:34;97921.59;;;14.03;44.41
72336;BME280;65062;48.446;8.834;2023-04-08T11:23:36;97919.56;;;14.52;44.42
72336;BME280;65062;48.446;8.834;2023-04-08T11:26:37;97919.97;;;14.49;42.15
72336;BME280;65062;48.446;8.834;2023-04-08T11:29:37;97921.81;;;14.75;43.39
72336;BME280;65062;48.446;8.834;2023-04-08T11:32:38;97917.16;;;15.03;45.58
72336;BME280;65062;48.446;8.834;2023-04-08T11:35:40;97911.91;;;14.90;45.07
72336;BME280;65062;48.446;8.834;2023-04-08T11:38:41;97917.53;;;14.54;43.56
72336;BME280;65062;48.446;8.834;2023-04-08T11:41:41;97916.06;;;14.32;41.80
72336;BME280;65062;48.446;8.834;2023-04-08T11:44:42;97914.88;;;13.94;43.42
72336;BME280;65062;48.446;8.834;2023-04-08T11:47:43;97918.91;;;13.50;45.15
72336;BME280;65062;48.446;8.834;2023-04-08T11:50:43;97919.22;;;13.34;47.37
72336;BME280;65062;48.446;8.834;2023-04-08T11:53:44;97923.75;;;12.77;44.69
72336;BME280;65062;48.446;8.834;2023-04-08T11:56:47;97922.31;;;12.74;46.62
72336;BME280;65062;48.446;8.834;2023-04-08T11:59:48;97918.66;;;12.68;45.36
72336;BME280;65062;48.446;8.834;2023-04-08T12:02:50;97917.44;;;12.50;47.66
72336;BME280;65062;48.446;8.834;2023-04-08T12:05:50;97920.34;;;12.76;49.04
72336;BME280;65062;48.446;8.834;2023-04-08T12:08:51;97923.78;;;12.55;47.13
72336;BME280;65062;48.446;8.834;2023-04-08T12:11:51;97916.47;;;12.51;48.96
72336;BME280;65062;48.446;8.834;2023-04-08T12:14:52;97921.56;;;12.38;48.06
72336;BME280;65062;48.446;8.834;2023-04-08T12:17:52;97921.91;;;12.49;48.51
72336;BME280;65062;48.446;8.834;2023-04-08T12:20:53;97925.78;;;12.18;48.11
72336;BME280;65062;48.446;8.834;2023-04-08T12:23:54;97934.34;;;12.41;50.04
72336;BME280;65062;48.446;8.834;2023-04-08T12:26:54;97934.16;;;12.28;50.14
72336;BME280;65062;48.446;8.834;2023-04-08T12:29:55;97938.38;;;12.43;48.92
72336;BME280;65062;48.446;8.834;2023-04-08T12:32:56;97926.69;;;12.10;50.30
72336;BME280;65062;48.446;8.834;2023-04-08T12:35:57;97930.66;;;12.21;48.09
72336;BME280;65062;48.446;8.834;2023-04-08T12:38:58;97927.88;;;12.08;49.78
72336;BME280;65062;48.446;8.834;2023-04-08T12:41:58;97922.03;;;11.91;50.25
72336;BME280;65062;48.446;8.834;2023-04-08T12:44:58;97929.53;;;11.94;51.31
72336;BME280;65062;48.446;8.834;2023-04-08T12:47:59;97924.72;;;12.12;50.22
72336;BME280;65062;48.446;8.834;2023-04-08T12:51:00;97924.66;;;12.27;52.10
72336;BME280;65062;48.446;8.834;2023-04-08T12:54:01;97926.94;;;12.30;50.51
72336;BME280;65062;48.446;8.834;2023-04-08T12:57:03;97929.19;;;12.33;50.85
72336;BME280;65062;48.446;8.834;2023-04-08T13:00:04;97929.38;;;12.31;51.08
72336;BME280;65062;48.446;8.834;2023-04-08T13:03:04;97933.97;;;12.29;48.38
72336;BME280;65062;48.446;8.834;2023-04-08T13:06:05;97924.44;;;12.22;51.72
72336;BME280;65062;48.446;8.834;2023-04-08T13:09:05;97923.38;;;12.02;49.26
72336;BME280;65062;48.446;8.834;2023-04-08T13:12:06;97924.03;;;11.89;48.98
72336;BME280;65062;48.446;8.834;2023-04-08T13:15:07;97926.69;;;11.75;49.88
72336;BME280;65062;48.446;8.834;2023-04-08T13:18:08;97927.56;;;11.82;49.02
72336;BME280;65062;48.446;8.834;2023-04-08T13:21:08;97928.19;;;11.98;49.79
72336;BME280;65062;48.446;8.834;2023-04-08T13:24:08;97926.09;;;11.94;49.19
72336;BME280;65062;48.446;8.834;2023-04-08T13:27:09;97917.91;;;11.82;48.74
72336;BME280;65062;48.446;8.834;2023-04-08T13:30:10;97928.94;;;11.78;49.54
72336;BME280;65062;48.446;8.834;2023-04-08T13:33:10;97928.00;;;11.85;51.17
72336;BME280;65062;48.446;8.834;2023-04-08T13:36:11;97916.25;;;11.81;50.04
72336;BME280;65062;48.446;8.834;2023-04-08T13:39:11;97917.78;;;11.90;51.69
72336;BME280;65062;48.446;8.834;2023-04-08T13:42:11;97924.75;;;11.83;50.64
72336;BME280;65062;48.446;8.834;2023-04-08T13:45:15;97929.84;;;11.70;50.29
72336;BME280;65062;48.446;8.834;2023-04-08T13:48:15;97924.94;;;11.82;52.85
72336;BME280;65062;48.446;8.834;2023-04-08T13:51:16;97924.56;;;11.99;52.35
72336;BME280;65062;48.446;8.834;2023-04-08T13:54:16;97918.50;;;11.99;51.28
72336;BME280;65062;48.446;8.834;2023-04-08T13:57:17;97917.25;;;11.95;52.67
72336;BME280;65062;48.446;8.834;2023-04-08T14:00:17;97923.56;;;11.86;53.67
72336;BME280;65062;48.446;8.834;2023-04-08T14:03:18;97921.31;;;11.83;52.52
72336;BME280;65062;48.446;8.834;2023-04-08T14:06:18;97929.75;;;11.64;53.46
72336;BME280;65062;48.446;8.834;2023-04-08T14:09:19;97931.31;;;11.50;52.39
72336;BME280;65062;48.446;8.834;2023-04-08T14:12:20;97930.75;;;11.63;52.82
72336;BME280;65062;48.446;8.834;2023-04-08T14:15:20;97935.84;;;11.42;50.82
72336;BME280;65062;48.446;8.834;2023-04-08T14:18:20;97932.31;;;11.35;49.80
72336;BME280;65062;48.446;8.834;2023-04-08T14:21:21;97929.78;;;11.27;50.86
72336;BME280;65062;48.446;8.834;2023-04-08T14:24:21;97935.47;;;11.16;50.76
72336;BME280;65062;48.446;8.834;2023-04-08T14:27:22;97932.28;;;11.06;52.54
72336;BME280;65062;48.446;8.834;2023-04-08T14:30:22;97933.06;;;11.06;52.51
72336;BME280;65062;48.446;8.834;2023-04-08T14:33:22;97933.50;;;10.95;53.53
72336;BME280;65062;48.446;8.834;2023-04-08T14:36:23;97939.50;;;11.04;49.61
72336;BME280;65062;48.446;8.834;2023-04-08T14:39:23;97938.97;;;11.08;48.98
72336;BME280;65062;48.446;8.834;2023-04-08T14:42:24;97933.56;;;11.10;51.07
72336;BME280;65062;48.446;8.834;2023-04-08T14:45:24;97931.47;;;11.20;50.75
72336;BME280;65062;48.446;8.834;2023-04-08T14:48:25;97937.91;;;11.32;50.33
72336;BME280;65062;48.446;8.834;2023-04-08T14:51:25;97934.03;;;11.28;49.15
72336;BME280;65062;48.446;8.834;2023-04-08T14:54:25;97930.44;;;11.43;49.22
72336;BME280;65062;48.446;8.834;2023-04-08T14:57:26;97934.34;;;11.62;49.87
72336;BME280;65062;48.446;8.834;2023-04-08T15:00:26;97937.84;;;11.54;46.93
72336;BME280;65062;48.446;8.834;2023-04-08T15:03:27;97930.97;;;11.53;48.14
72336;BME280;65062;48.446;8.834;2023-04-08T15:06:27;97933.19;;;11.79;48.54
72336;BME280;65062;48.446;8.834;2023-04-08T15:09:28;97929.34;;;11.96;48.01
72336;BME280;65062;48.446;8.834;2023-04-08T15:12:28;97923.31;;;11.95;49.49
72336;BME280;65062;48.446;8.834;2023-04-08T15:15:29;97927.03;;;11.86;46.82
72336;BME280;65062;48.446;8.834;2023-04-08T15:18:29;97926.75;;;11.81;47.92
72336;BME280;65062;48.446;8.834;2023-04-08T15:21:30;97924.09;;;11.96;49.78
72336;BME280;65062;48.446;8.834;2023-04-08T15:24:30;97937.75;;;11.91;50.45
72336;BME280;65062;48.446;8.834;2023-04-08T15:27:31;97934.53;;;11.89;47.35
72336;BME280;65062;48.446;8.834;2023-04-08T15:30:31;97934.78;;;11.80;45.59
72336;BME280;65062;48.446;8.834;2023-04-08T15:33:34;97938.41;;;11.79;47.39
72336;BME280;65062;48.446;8.834;2023-04-08T15:36:38;97935.97;;;11.77;47.56
72336;BME280;65062;48.446;8.834;2023-04-08T15:39:38;97938.66;;;11.84;46.68
72336;BME280;65062;48.446;8.834;2023-04-08T15:42:40;97936.22;;;11.53;46.38
72336;BME280;65062;48.446;8.834;2023-04-08T15:45:44;97939.38;;;11.49;47.15
72336;BME280;65062;48.446;8.834;2023-04-08T15:48:49;97940.84;;;11.51;46.38
72336;BME280;65062;48.446;8.834;2023-04-08T15:51:49;97938.81;;;11.39;46.51
72336;BME280;65062;48.446;8.834;2023-04-08T15:54:50;97945.69;;;11.40;46.63
72336;BME280;65062;48.446;8.834;2023-04-08T15:57:50;97943.34;;;11.30;48.61
72336;BME280;65062;48.446;8.834;2023-04-08T16:00:53;97947.31;;;11.26;48.90
72336;BME280;65062;48.446;8.834;2023-04-08T16:03:54;97947.16;;;11.05;48.84
72336;BME280;65062;48.446;8.834;2023-04-08T16:06:55;97950.41;;;10.93;50.17
72336;BME280;65062;48.446;8.834;2023-04-08T16:09:56;97948.41;;;10.95;52.97
72336;BME280;65062;48.446;8.834;2023-04-08T16:12:56;97956.38;;;11.01;49.23
72336;BME280;65062;48.446;8.834;2023-04-08T16:15:57;97958.13;;;11.09;50.55